createdAt,value
2017-09-21T00:00:27.347Z,31.33
2017-09-21T00:02:55.250Z,29.05
2017-09-21T00:05:22.728Z,28.10
2017-09-21T00:07:50.223Z,31.77
2017-09-21T00:10:18.162Z,30.50
2017-09-21T00:12:46.596Z,29.90
2017-09-21T00:15:14.644Z,28.20
2017-09-21T00:17:42.547Z,27.65
2017-09-21T00:20:10.987Z,26.10
2017-09-21T00:22:38.916Z,29.65
2017-09-21T00:25:06.428Z,28.90
2017-09-21T00:27:33.918Z,29.98
2017-09-21T00:30:01.430Z,28.73
2017-09-21T00:32:29.334Z,28.75
2017-09-21T00:34:58.482Z,27.50
2017-09-21T00:37:26.412Z,29.25
2017-09-21T00:39:53.923Z,28.75
2017-09-21T00:42:22.420Z,27.75
2017-09-21T00:44:49.968Z,26.65
2017-09-21T00:47:17.488Z,26.10
2017-09-21T00:49:44.995Z,27.52
2017-09-21T00:52:12.507Z,26.65
2017-09-21T00:54:40.414Z,25.45
2017-09-21T00:57:07.946Z,27.25
2017-09-21T00:59:35.843Z,27.15
2017-09-21T01:02:03.363Z,26.12
2017-09-21T01:04:30.876Z,27.62
2017-09-21T01:06:58.366Z,27.02
2017-09-21T01:09:25.884Z,26.67
2017-09-21T01:11:53.398Z,24.87
2017-09-21T01:14:21.283Z,25.83
2017-09-21T01:16:48.819Z,25.02
2017-09-21T01:19:16.702Z,26.25
2017-09-21T01:21:44.624Z,25.77
2017-09-21T01:24:12.140Z,26.85
2017-09-21T01:26:40.450Z,24.92
2017-09-21T01:29:07.967Z,27.30
2017-09-21T01:31:35.555Z,27.20
2017-09-21T01:34:04.037Z,24.87
2017-09-21T01:36:31.566Z,24.48
2017-09-21T01:38:59.100Z,25.40
2017-09-21T01:41:26.610Z,24.10
2017-09-21T01:43:54.107Z,24.92
2017-09-21T01:46:21.596Z,22.85
2017-09-21T01:48:49.119Z,22.75
2017-09-21T01:51:16.618Z,23.40
2017-09-21T01:53:44.100Z,22.95
2017-09-21T01:56:11.606Z,23.65
2017-09-21T01:58:39.503Z,21.20
2017-09-21T02:01:13.277Z,22.92
2017-09-21T02:03:41.153Z,22.52
2017-09-21T02:06:09.054Z,23.08
2017-09-21T02:08:36.550Z,22.80
2017-09-21T02:11:04.037Z,23.25
2017-09-21T02:13:31.573Z,21.70
2017-09-21T02:15:59.078Z,21.90
2017-09-21T02:18:26.595Z,22.50
2017-09-21T02:20:54.757Z,22.25
2017-09-21T02:23:22.238Z,22.95
2017-09-21T02:25:50.106Z,22.35
2017-09-21T02:28:18.013Z,22.20
2017-09-21T02:30:46.294Z,22.77
2017-09-21T02:33:13.798Z,22.60
2017-09-21T02:35:41.309Z,23.58
2017-09-21T02:38:08.812Z,22.85
2017-09-21T02:40:37.106Z,23.60
2017-09-21T02:43:05.563Z,24.02
2017-09-21T02:45:34.028Z,24.77
2017-09-21T02:48:01.546Z,22.08
2017-09-21T02:50:29.034Z,21.98
2017-09-21T02:52:56.555Z,23.12
2017-09-21T02:55:24.067Z,24.55
2017-09-21T02:57:52.551Z,23.90
2017-09-21T03:00:20.453Z,23.48
2017-09-21T03:02:47.938Z,25.17
2017-09-21T03:05:15.447Z,24.65
2017-09-21T03:07:43.361Z,24.25
2017-09-21T03:10:11.278Z,27.10
2017-09-21T03:12:40.108Z,25.35
2017-09-21T03:15:08.270Z,26.00
2017-09-21T03:17:35.755Z,23.20
2017-09-21T03:20:03.269Z,24.85
2017-09-21T03:22:31.471Z,25.70
2017-09-21T03:25:00.188Z,26.48
2017-09-21T03:27:27.710Z,25.10
2017-09-21T03:29:55.204Z,27.25
2017-09-21T03:32:23.594Z,28.55
2017-09-21T03:34:51.506Z,28.33
2017-09-21T03:37:19.009Z,25.85
2017-09-21T03:39:47.237Z,25.15
2017-09-21T03:42:14.755Z,25.33
2017-09-21T03:44:42.691Z,25.83
2017-09-21T03:47:10.178Z,26.17
2017-09-21T03:49:39.527Z,23.48
2017-09-21T03:52:07.055Z,24.83
2017-09-21T03:54:34.545Z,23.80
2017-09-21T03:57:02.025Z,24.77
2017-09-21T03:59:29.538Z,22.37
2017-09-21T04:01:59.008Z,21.77
2017-09-21T04:04:26.555Z,23.48
2017-09-21T04:06:54.045Z,20.83
2017-09-21T04:09:21.930Z,22.80
2017-09-21T04:11:51.005Z,22.80
2017-09-21T04:14:18.518Z,23.15
2017-09-21T04:16:45.995Z,24.77
2017-09-21T04:19:13.497Z,21.95
2017-09-21T04:21:40.982Z,23.15
2017-09-21T04:24:08.508Z,21.00
2017-09-21T04:26:36.021Z,21.80
2017-09-21T04:29:03.495Z,24.85
2017-09-21T04:31:32.037Z,26.67
2017-09-21T04:33:59.516Z,27.52
2017-09-21T04:36:27.019Z,27.62
2017-09-21T04:38:54.522Z,25.48
2017-09-21T04:41:23.024Z,28.12
2017-09-21T04:43:50.902Z,25.83
2017-09-21T04:46:18.805Z,25.35
2017-09-21T04:48:46.281Z,26.10
2017-09-21T04:51:15.749Z,24.67
2017-09-21T04:53:43.230Z,24.90
2017-09-21T04:56:10.730Z,26.08
2017-09-21T04:58:38.630Z,26.02
2017-09-21T05:01:06.110Z,25.40
2017-09-21T05:03:33.617Z,26.42
2017-09-21T05:06:01.542Z,26.08
2017-09-21T05:08:29.643Z,25.10
2017-09-21T05:10:57.537Z,28.92
2017-09-21T05:13:25.037Z,29.12
2017-09-21T05:15:54.456Z,30.90
2017-09-21T05:18:21.937Z,33.28
2017-09-21T05:20:49.865Z,29.08
2017-09-21T05:23:17.337Z,31.37
2017-09-21T05:25:45.479Z,32.95
2017-09-21T05:28:13.629Z,32.55
2017-09-21T05:30:41.130Z,30.15
2017-09-21T05:33:08.619Z,31.40
2017-09-21T05:35:38.395Z,34.65
2017-09-21T05:38:05.897Z,33.10
2017-09-21T05:40:33.788Z,33.17
2017-09-21T05:43:01.270Z,34.35
2017-09-21T05:45:28.812Z,32.03
2017-09-21T05:47:56.310Z,30.55
2017-09-21T05:50:23.790Z,30.17
2017-09-21T05:52:51.690Z,30.15
2017-09-21T05:55:19.215Z,30.77
2017-09-21T05:57:47.089Z,29.48
2017-09-21T06:00:14.594Z,32.42
2017-09-21T06:02:43.031Z,30.40
2017-09-21T06:05:10.534Z,29.70
2017-09-21T06:07:38.066Z,29.27
2017-09-21T06:10:05.542Z,31.12
2017-09-21T06:12:33.047Z,27.77
2017-09-21T06:15:00.950Z,28.35
2017-09-21T06:17:28.433Z,30.45
2017-09-21T06:19:55.951Z,29.73
2017-09-21T06:22:24.375Z,31.00
2017-09-21T06:24:51.903Z,31.75
2017-09-21T06:27:19.409Z,32.22
2017-09-21T06:29:46.903Z,31.70
2017-09-21T06:32:14.795Z,32.58
2017-09-21T06:34:42.287Z,31.40
2017-09-21T06:37:09.770Z,33.25
2017-09-21T06:39:37.277Z,34.05
2017-09-21T06:42:04.759Z,34.28
2017-09-21T06:44:32.270Z,34.63
2017-09-21T06:47:00.442Z,33.67
2017-09-21T06:49:27.938Z,35.60
2017-09-21T06:51:55.428Z,35.35
2017-09-21T06:54:22.934Z,37.05
2017-09-21T06:56:50.422Z,35.97
2017-09-21T06:59:17.935Z,36.10
2017-09-21T07:01:45.446Z,37.65
2017-09-21T07:04:13.354Z,36.55
2017-09-21T07:06:40.869Z,38.70
2017-09-21T07:09:08.378Z,34.58
2017-09-21T07:11:35.875Z,37.97
2017-09-21T07:14:03.831Z,39.25
2017-09-21T07:16:31.753Z,38.97
2017-09-21T07:18:59.268Z,39.85
2017-09-21T07:21:27.146Z,39.92
2017-09-21T07:23:55.036Z,43.70
2017-09-21T07:26:22.554Z,44.90
2017-09-21T07:28:50.434Z,41.22
2017-09-21T07:31:18.354Z,40.55
2017-09-21T07:33:45.859Z,42.17
2017-09-21T07:36:13.388Z,40.95
2017-09-21T07:38:40.896Z,41.90
2017-09-21T07:41:08.387Z,43.08
2017-09-21T07:43:35.916Z,44.42
2017-09-21T07:46:03.434Z,43.45
2017-09-21T07:48:30.958Z,40.90
2017-09-21T07:50:59.460Z,44.58
2017-09-21T07:53:26.978Z,45.40
2017-09-21T07:55:54.467Z,43.90
2017-09-21T07:58:21.982Z,44.97
2017-09-21T08:00:49.479Z,44.53
2017-09-21T08:03:18.918Z,44.85
2017-09-21T08:05:48.745Z,42.25
2017-09-21T08:08:16.265Z,45.58
2017-09-21T08:10:43.783Z,47.17
2017-09-21T08:13:11.299Z,43.40
2017-09-21T08:15:39.189Z,41.92
2017-09-21T08:18:06.698Z,43.75
2017-09-21T08:20:34.186Z,44.67
2017-09-21T08:23:03.008Z,41.95
2017-09-21T08:25:30.517Z,44.13
2017-09-21T08:27:58.025Z,43.15
2017-09-21T08:30:25.514Z,41.67
2017-09-21T08:32:53.014Z,40.97
2017-09-21T08:35:20.490Z,39.75
2017-09-21T08:37:49.929Z,44.58
2017-09-21T08:40:17.422Z,43.15
2017-09-21T08:42:45.297Z,43.45
2017-09-21T08:45:13.810Z,45.20
2017-09-21T08:47:41.344Z,48.28
2017-09-21T08:50:08.855Z,43.83
2017-09-21T08:52:36.358Z,45.58
2017-09-21T08:55:03.857Z,43.10
2017-09-21T08:57:31.353Z,44.80
2017-09-21T09:00:00.181Z,46.40
2017-09-21T09:02:27.677Z,44.60
2017-09-21T09:04:55.178Z,44.53
2017-09-21T09:07:22.697Z,44.72
2017-09-21T09:09:50.185Z,45.97
2017-09-21T09:12:17.685Z,45.17
2017-09-21T09:14:45.934Z,47.40
2017-09-21T09:17:14.138Z,46.33
2017-09-21T09:19:41.626Z,46.05
2017-09-21T09:22:10.278Z,46.65
2017-09-21T09:24:37.807Z,45.05
2017-09-21T09:27:06.267Z,43.55
2017-09-21T09:29:33.805Z,45.08
2017-09-21T09:32:01.686Z,45.03
2017-09-21T09:34:29.197Z,46.05
2017-09-21T09:36:56.702Z,43.75
2017-09-21T09:39:25.170Z,45.63
2017-09-21T09:41:53.059Z,42.60
2017-09-21T09:44:20.573Z,42.65
2017-09-21T09:46:48.079Z,44.83
2017-09-21T09:49:16.518Z,45.15
2017-09-21T09:51:44.014Z,39.50
2017-09-21T09:54:11.519Z,39.87
2017-09-21T09:56:39.025Z,41.28
2017-09-21T09:59:06.515Z,43.35
2017-09-21T10:04:07.905Z,42.30
2017-09-21T10:06:35.966Z,38.47
2017-09-21T10:09:03.479Z,40.77
2017-09-21T10:11:30.987Z,41.25
2017-09-21T10:13:59.411Z,39.70
2017-09-21T10:16:26.951Z,42.20
2017-09-21T10:18:56.482Z,42.42
2017-09-21T10:21:24.021Z,42.58
2017-09-21T10:23:51.538Z,43.70
2017-09-21T10:26:19.038Z,42.88
2017-09-21T10:28:46.859Z,39.78
2017-09-21T10:31:14.354Z,39.97
2017-09-21T10:33:41.936Z,44.03
2017-09-21T10:36:11.406Z,42.50
2017-09-21T10:38:38.893Z,39.75
2017-09-21T10:41:07.349Z,41.27
2017-09-21T10:43:34.875Z,42.95
2017-09-21T10:46:02.371Z,40.78
2017-09-21T10:48:31.797Z,40.12
2017-09-21T10:50:59.284Z,38.03
2017-09-21T10:53:26.769Z,39.97
2017-09-21T10:55:56.220Z,38.97
2017-09-21T10:58:23.738Z,38.42
2017-09-21T11:00:51.626Z,38.50
2017-09-21T11:03:19.158Z,38.27
2017-09-21T11:05:47.079Z,37.00
2017-09-21T11:08:14.591Z,34.20
2017-09-21T11:10:42.525Z,35.72
2017-09-21T11:13:10.018Z,33.10
2017-09-21T11:15:37.933Z,35.65
2017-09-21T11:18:05.670Z,35.23
2017-09-21T11:20:33.187Z,32.83
2017-09-21T11:23:00.783Z,33.33
2017-09-21T11:25:28.291Z,34.05
2017-09-21T11:27:55.814Z,33.07
2017-09-21T11:30:23.326Z,32.60
2017-09-21T11:32:51.237Z,30.65
2017-09-21T11:35:18.754Z,31.10
2017-09-21T11:37:46.750Z,28.83
2017-09-21T11:40:14.237Z,29.73
2017-09-21T11:42:41.750Z,27.42
2017-09-21T11:45:09.270Z,30.13
2017-09-21T11:47:38.734Z,27.67
2017-09-21T11:50:06.256Z,26.08
2017-09-21T11:52:33.755Z,25.27
2017-09-21T11:55:01.313Z,27.40
2017-09-21T11:57:28.826Z,27.20
2017-09-21T11:59:56.727Z,25.12
2017-09-21T12:02:24.246Z,25.93
2017-09-21T12:04:51.737Z,23.20
2017-09-21T12:07:21.259Z,22.87
2017-09-21T12:09:48.758Z,21.83
2017-09-21T12:12:16.289Z,20.67
2017-09-21T12:14:43.801Z,16.80
2017-09-21T12:17:12.252Z,15.83
2017-09-21T12:19:40.072Z,14.53
2017-09-21T12:22:07.626Z,16.53
2017-09-21T12:24:35.126Z,15.13
2017-09-21T12:27:02.658Z,15.63
2017-09-21T12:29:30.156Z,16.50
2017-09-21T12:31:59.002Z,16.77
2017-09-21T12:34:26.531Z,14.77
2017-09-21T12:36:54.066Z,11.80
2017-09-21T12:39:22.503Z,12.00
2017-09-21T12:41:50.014Z,12.03
2017-09-21T12:44:17.917Z,15.00
2017-09-21T12:46:46.611Z,13.60
2017-09-21T12:49:14.160Z,12.50
2017-09-21T12:51:41.718Z,11.10
2017-09-21T12:54:09.239Z,12.57
2017-09-21T12:56:37.151Z,12.93
2017-09-21T12:59:04.638Z,13.30
2017-09-21T13:01:32.190Z,11.90
2017-09-21T13:03:59.681Z,11.83
2017-09-21T13:06:27.578Z,11.23
2017-09-21T13:08:56.635Z,12.17
2017-09-21T13:11:24.126Z,12.30
2017-09-21T13:13:52.858Z,12.10
2017-09-21T13:16:20.378Z,11.20
2017-09-21T13:18:49.718Z,9.73
2017-09-21T13:21:17.246Z,11.43
2017-09-21T13:23:44.735Z,11.47
2017-09-21T13:26:12.258Z,10.07
2017-09-21T13:28:39.751Z,12.13
2017-09-21T13:31:07.919Z,9.80
2017-09-21T13:33:35.435Z,9.67
2017-09-21T13:36:02.957Z,9.67
2017-09-21T13:38:30.863Z,9.03
2017-09-21T13:40:58.367Z,8.63
2017-09-21T13:43:25.861Z,8.70
2017-09-21T13:45:53.361Z,8.33
2017-09-21T13:48:20.863Z,6.67
2017-09-21T13:50:48.736Z,7.63
2017-09-21T13:53:16.250Z,8.50
2017-09-21T13:55:43.761Z,9.10
2017-09-21T13:58:11.262Z,8.70
2017-09-21T14:00:40.732Z,8.17
2017-09-21T14:03:08.210Z,6.93
2017-09-21T14:05:35.716Z,7.97
2017-09-21T14:08:03.599Z,7.33
2017-09-21T14:10:32.081Z,7.43
2017-09-21T14:12:59.621Z,6.40
2017-09-21T14:15:27.542Z,6.13
2017-09-21T14:17:55.078Z,5.83
2017-09-21T14:20:23.463Z,6.03
2017-09-21T14:22:56.311Z,5.70
2017-09-21T14:25:24.213Z,4.87
2017-09-21T14:27:55.663Z,6.00
2017-09-21T14:30:23.945Z,6.07
2017-09-21T14:32:52.450Z,6.17
2017-09-21T14:35:19.922Z,5.07
2017-09-21T14:37:47.414Z,6.07
2017-09-21T14:40:14.915Z,4.60
2017-09-21T14:42:42.427Z,4.40
2017-09-21T14:45:09.907Z,4.60
2017-09-21T14:47:37.415Z,4.10
2017-09-21T14:50:05.311Z,4.70
2017-09-21T14:52:32.817Z,4.33
2017-09-21T14:55:00.305Z,4.13
2017-09-21T14:57:28.958Z,4.80
2017-09-21T14:59:56.503Z,4.93
2017-09-21T15:02:26.595Z,3.93
2017-09-21T15:04:54.957Z,4.47
2017-09-21T15:07:22.489Z,4.63
2017-09-21T15:09:50.086Z,5.57
2017-09-21T15:12:19.101Z,3.87
2017-09-21T15:14:46.584Z,5.03
2017-09-21T15:17:14.890Z,4.37
2017-09-21T15:19:42.814Z,4.57
2017-09-21T15:22:10.316Z,3.50
2017-09-21T15:24:37.791Z,5.27
2017-09-21T15:27:05.286Z,5.13
2017-09-21T15:29:34.390Z,4.80
2017-09-21T15:32:01.979Z,4.33
2017-09-21T15:34:31.881Z,4.43
2017-09-21T15:36:59.774Z,4.20
2017-09-21T15:39:29.671Z,4.73
2017-09-21T15:41:57.574Z,4.20
2017-09-21T15:44:25.055Z,4.50
2017-09-21T15:46:53.405Z,4.53
2017-09-21T15:49:20.882Z,5.60
2017-09-21T15:51:49.310Z,3.80
2017-09-21T15:54:19.963Z,5.17
2017-09-21T15:56:51.697Z,4.23
2017-09-21T15:59:19.570Z,4.30
2017-09-21T16:01:47.485Z,3.53
2017-09-21T16:04:14.963Z,4.13
2017-09-21T16:06:42.494Z,4.43
2017-09-21T16:09:11.450Z,4.30
2017-09-21T16:11:39.340Z,5.40
2017-09-21T16:14:07.886Z,4.67
2017-09-21T16:16:35.802Z,4.80
2017-09-21T16:19:04.097Z,4.37
2017-09-21T16:21:31.585Z,4.67
2017-09-21T16:23:59.495Z,4.90
2017-09-21T16:26:27.040Z,4.83
2017-09-21T16:28:54.539Z,5.30
2017-09-21T16:31:23.797Z,5.67
2017-09-21T16:33:52.087Z,4.17
2017-09-21T16:36:21.647Z,4.10
2017-09-21T16:38:50.494Z,4.30
2017-09-21T16:41:18.738Z,4.17
2017-09-21T16:43:46.839Z,4.03
2017-09-21T16:46:15.224Z,5.20
2017-09-21T16:48:42.707Z,4.10
2017-09-21T16:51:10.198Z,3.80
2017-09-21T16:53:37.721Z,4.17
2017-09-21T16:56:06.107Z,4.40
2017-09-21T16:58:34.102Z,5.43
2017-09-21T17:01:01.660Z,5.30
2017-09-21T17:03:30.214Z,5.07
2017-09-21T17:05:59.038Z,5.57
2017-09-21T17:08:26.529Z,5.00
2017-09-21T17:10:54.910Z,5.77
2017-09-21T17:13:23.680Z,6.47
2017-09-21T17:15:51.208Z,5.97
2017-09-21T17:18:21.865Z,8.47
2017-09-21T17:20:54.473Z,7.50
2017-09-21T17:23:21.974Z,7.83
2017-09-21T17:25:49.502Z,8.00
2017-09-21T17:28:17.927Z,7.12
2017-09-21T17:30:45.446Z,6.60
2017-09-21T17:33:13.344Z,6.63
2017-09-21T17:35:42.013Z,6.93
2017-09-21T17:38:09.530Z,7.10
2017-09-21T17:40:37.032Z,6.53
2017-09-21T17:43:04.535Z,7.50
2017-09-21T17:45:32.053Z,7.20
2017-09-21T17:47:59.567Z,7.73
2017-09-21T17:50:27.062Z,26.23
2017-09-21T17:52:54.639Z,7.77
2017-09-21T17:55:24.094Z,7.70
2017-09-21T17:57:51.582Z,8.40
2017-09-21T18:00:19.115Z,8.73
2017-09-21T18:02:47.869Z,9.15
2017-09-21T18:05:15.569Z,8.60
2017-09-21T18:07:44.738Z,8.23
2017-09-21T18:10:14.346Z,8.57
2017-09-21T18:12:42.871Z,7.93
2017-09-21T18:15:13.152Z,9.18
2017-09-21T18:17:40.740Z,9.15
2017-09-21T18:20:08.345Z,9.23
2017-09-21T18:22:37.188Z,8.53
2017-09-21T18:25:05.652Z,8.20
2017-09-21T18:27:33.592Z,7.53
2017-09-21T18:30:01.111Z,8.70
2017-09-21T18:32:35.686Z,8.10
2017-09-21T18:35:03.285Z,8.20
2017-09-21T18:37:30.877Z,9.95
2017-09-21T18:39:58.511Z,11.05
2017-09-21T18:42:27.747Z,11.93
2017-09-21T18:44:56.319Z,10.45
2017-09-21T18:47:23.889Z,9.50
2017-09-21T18:49:51.448Z,9.85
2017-09-21T18:52:19.980Z,9.88
2017-09-21T18:54:48.443Z,9.10
2017-09-21T18:57:16.958Z,9.05
2017-09-21T19:02:22.682Z,8.90
2017-09-21T19:04:50.309Z,9.80
2017-09-21T19:07:19.245Z,9.63
2017-09-21T19:09:47.878Z,9.43
2017-09-21T19:12:16.190Z,9.30
2017-09-21T19:14:45.594Z,8.68
2017-09-21T19:17:14.940Z,9.30
2017-09-21T19:19:46.259Z,8.95
2017-09-21T19:22:21.087Z,8.90
2017-09-21T19:24:57.485Z,15.52
2017-09-21T19:27:29.612Z,9.80
2017-09-21T19:30:02.164Z,9.63
2017-09-21T19:32:31.553Z,10.45
2017-09-21T19:35:00.837Z,10.65
2017-09-21T19:37:28.951Z,10.90
2017-09-21T19:40:02.667Z,9.30
2017-09-21T19:42:30.650Z,13.10
2017-09-21T19:45:00.097Z,13.23
2017-09-21T19:47:28.670Z,12.73
2017-09-21T19:49:57.647Z,14.10
2017-09-21T19:52:25.250Z,14.00
2017-09-21T19:54:55.732Z,12.90
2017-09-21T19:57:25.580Z,12.02
2017-09-21T19:59:53.997Z,10.48
2017-09-21T20:02:21.638Z,10.85
2017-09-21T20:04:49.239Z,10.98
2017-09-21T20:07:16.829Z,10.27
2017-09-21T20:09:55.032Z,11.63
2017-09-21T20:12:27.196Z,10.55
2017-09-21T20:14:55.294Z,11.48
2017-09-21T20:17:25.956Z,10.60
2017-09-21T20:19:57.503Z,10.82
2017-09-21T20:26:08.011Z,10.30
2017-09-21T20:28:35.757Z,10.85
2017-09-21T20:31:03.308Z,10.70
2017-09-21T20:33:33.351Z,10.70
2017-09-21T20:41:10.078Z,11.30
2017-09-21T20:43:39.157Z,9.32
2017-09-21T20:46:08.719Z,11.32
2017-09-21T20:48:37.135Z,11.20
2017-09-21T20:51:07.813Z,10.40
2017-09-21T20:53:36.310Z,10.82
2017-09-21T20:56:06.039Z,12.50
2017-09-21T20:58:35.651Z,11.55
2017-09-21T21:01:04.238Z,11.18
2017-09-21T21:03:32.449Z,12.18
2017-09-21T21:06:00.450Z,12.93
2017-09-21T21:08:28.687Z,12.70
2017-09-21T21:10:56.216Z,12.60
2017-09-21T21:13:26.520Z,13.13
2017-09-21T21:15:55.000Z,12.10
2017-09-21T21:18:22.633Z,11.20
2017-09-21T21:20:50.195Z,11.35
2017-09-21T21:23:17.892Z,11.90
2017-09-21T21:25:46.463Z,12.18
2017-09-21T21:28:14.473Z,12.18
2017-09-21T21:30:42.176Z,11.27
2017-09-21T21:33:09.802Z,11.73
2017-09-21T21:35:39.382Z,11.18
2017-09-21T21:38:10.276Z,12.32
2017-09-21T21:40:39.556Z,12.55
2017-09-21T21:43:07.121Z,13.20
2017-09-21T21:45:36.323Z,13.07
2017-09-21T21:48:05.541Z,12.85
2017-09-21T21:50:34.308Z,12.75
2017-09-21T21:53:02.003Z,12.57
2017-09-21T21:55:30.004Z,12.15
2017-09-21T21:57:59.970Z,13.13
2017-09-21T22:00:29.894Z,11.38
2017-09-21T22:03:01.706Z,12.73
2017-09-21T22:05:30.221Z,12.23
2017-09-21T22:07:57.815Z,10.93
2017-09-21T22:10:26.258Z,10.32
2017-09-21T22:12:54.026Z,11.15
2017-09-21T22:15:24.440Z,10.40
2017-09-21T22:17:52.032Z,11.25
2017-09-21T22:20:20.100Z,10.55
2017-09-21T22:22:53.975Z,10.75
2017-09-21T22:25:21.574Z,11.40
2017-09-21T22:27:50.050Z,10.57
2017-09-21T22:30:18.063Z,11.12
2017-09-21T22:32:45.721Z,11.65
2017-09-21T22:35:14.206Z,15.25
2017-09-21T22:37:41.788Z,17.05
2017-09-21T22:40:09.277Z,14.00
2017-09-21T22:42:37.195Z,16.12
2017-09-21T22:45:05.078Z,12.30
2017-09-21T22:47:33.075Z,16.33
2017-09-21T22:50:02.754Z,15.48
2017-09-21T22:52:35.583Z,16.83
2017-09-21T22:55:03.071Z,14.75
2017-09-21T22:57:30.553Z,16.48
2017-09-21T22:59:58.111Z,15.48
2017-09-21T23:02:31.241Z,15.93
2017-09-21T23:04:58.808Z,15.85
2017-09-21T23:07:26.334Z,16.40
2017-09-21T23:09:53.851Z,15.23
2017-09-21T23:12:21.349Z,15.65
2017-09-21T23:14:49.253Z,15.73
2017-09-21T23:17:16.757Z,15.05
2017-09-21T23:19:45.227Z,15.43
2017-09-21T23:22:12.744Z,15.50
2017-09-21T23:24:40.443Z,13.40
2017-09-21T23:27:07.946Z,15.85
2017-09-21T23:29:35.876Z,13.62
2017-09-21T23:32:05.338Z,12.70
2017-09-21T23:34:32.822Z,11.43
2017-09-21T23:37:00.333Z,12.88
2017-09-21T23:39:28.235Z,16.48
2017-09-21T23:41:57.574Z,12.93
2017-09-21T23:44:25.058Z,12.50
2017-09-21T23:46:53.702Z,12.00
2017-09-21T23:49:23.202Z,13.50
2017-09-21T23:51:50.697Z,13.35
2017-09-21T23:54:18.599Z,12.70
2017-09-21T23:56:48.387Z,15.48
2017-09-21T23:59:16.274Z,13.05
